createdAt,value
2023-05-03T00:00:52.596Z,50272.40
2023-05-03T00:03:23.992Z,50267.60
2023-05-03T00:05:52.467Z,50257.61
2023-05-03T00:08:21.984Z,50257.60
2023-05-03T00:10:50.224Z,50261.60
2023-05-03T00:13:18.640Z,50264.00
2023-05-03T00:15:46.958Z,50264.80
2023-05-03T00:18:16.375Z,50260.40
2023-05-03T00:20:45.108Z,50244.80
2023-05-03T00:23:14.064Z,50258.01
2023-05-03T00:25:42.377Z,50253.61
2023-05-03T00:28:11.179Z,50262.80
2023-05-03T00:30:39.477Z,50266.00
2023-05-03T00:33:08.755Z,50256.80
2023-05-03T00:35:37.209Z,50273.20
2023-05-03T00:38:06.253Z,50270.80
2023-05-03T00:40:35.024Z,50265.60
2023-05-03T00:43:03.727Z,50256.41
2023-05-03T00:45:34.333Z,50265.60
2023-05-03T00:48:03.051Z,50251.21
2023-05-03T00:50:31.644Z,50275.59
2023-05-03T00:53:01.107Z,50275.60
2023-05-03T00:55:31.724Z,50264.41
2023-05-03T00:58:00.199Z,50264.40
2023-05-03T01:00:28.577Z,50268.40
2023-05-03T01:02:57.122Z,50262.40
2023-05-03T01:05:33.395Z,50273.20
2023-05-03T01:08:09.910Z,50262.41
2023-05-03T01:10:47.560Z,50281.99
2023-05-03T01:13:19.447Z,50278.00
2023-05-03T01:16:10.697Z,50283.20
2023-05-03T01:18:44.428Z,50268.40
2023-05-03T01:21:16.079Z,50284.00
2023-05-03T01:23:54.835Z,50272.00
2023-05-03T01:26:26.038Z,50274.80
2023-05-03T01:28:56.236Z,50279.59
2023-05-03T01:31:44.833Z,50288.79
2023-05-03T01:34:21.876Z,50266.40
2023-05-03T01:36:54.237Z,50278.00
2023-05-03T01:39:56.085Z,50276.80
2023-05-03T01:42:26.145Z,50280.00
2023-05-03T01:44:55.990Z,50276.39
2023-05-03T01:47:24.399Z,50272.40
2023-05-03T01:49:53.591Z,50282.80
2023-05-03T01:52:23.705Z,50297.59
2023-05-03T01:54:51.931Z,50285.59
2023-05-03T01:57:20.116Z,50281.20
2023-05-03T01:59:48.367Z,50275.60
2023-05-03T02:02:16.603Z,50275.60
2023-05-03T02:04:44.784Z,50283.99
2023-05-03T02:07:13.981Z,50285.20
2023-05-03T02:09:42.623Z,50277.99
2023-05-03T02:12:11.678Z,50283.20
2023-05-03T02:14:39.944Z,50286.40
2023-05-03T02:17:08.601Z,50266.40
2023-05-03T02:19:37.020Z,50289.59
2023-05-03T02:22:05.297Z,50271.60
2023-05-03T02:24:36.439Z,50281.20
2023-05-03T02:27:05.108Z,50280.39
2023-05-03T02:29:33.379Z,50288.40
2023-05-03T02:32:02.169Z,50280.80
2023-05-03T02:34:32.988Z,50285.20
2023-05-03T02:37:01.327Z,50283.99
2023-05-03T02:39:29.945Z,50284.80
2023-05-03T02:41:59.724Z,50295.59
2023-05-03T02:44:33.510Z,50291.19
2023-05-03T02:47:02.089Z,50280.00
2023-05-03T02:49:31.375Z,50280.79
2023-05-03T02:52:00.773Z,50286.79
2023-05-03T02:54:29.138Z,50289.99
2023-05-03T02:57:02.304Z,50276.80
2023-05-03T02:59:33.588Z,50275.20
2023-05-03T03:02:02.222Z,50287.59
2023-05-03T03:04:31.193Z,50292.79
2023-05-03T03:06:59.497Z,50281.20
2023-05-03T03:09:27.811Z,50270.80
2023-05-03T03:11:56.131Z,50270.40
2023-05-03T03:14:24.510Z,50272.00
2023-05-03T03:16:52.999Z,50264.00
2023-05-03T03:19:21.295Z,50270.80
2023-05-03T03:21:49.472Z,50274.80
2023-05-03T03:24:17.643Z,50270.00
2023-05-03T03:26:46.402Z,50272.00
2023-05-03T03:29:14.766Z,50275.20
2023-05-03T03:31:43.997Z,50248.01
2023-05-03T03:34:14.632Z,50251.21
2023-05-03T03:36:43.761Z,50238.01
2023-05-03T03:39:12.227Z,50238.01
2023-05-03T03:41:42.020Z,50232.41
2023-05-03T03:44:10.453Z,50250.41
2023-05-03T03:46:39.596Z,50239.61
2023-05-03T03:49:08.294Z,50236.41
2023-05-03T03:51:37.615Z,50244.01
2023-05-03T03:54:06.583Z,50232.41
2023-05-03T03:56:35.896Z,50224.82
2023-05-03T03:59:04.338Z,50241.21
2023-05-03T04:01:33.314Z,50231.61
2023-05-03T04:04:01.794Z,50233.21
2023-05-03T04:06:33.245Z,50242.01
2023-05-03T04:09:03.336Z,50231.21
2023-05-03T04:11:32.201Z,50241.61
2023-05-03T04:14:02.982Z,50227.62
2023-05-03T04:16:31.677Z,50217.62
2023-05-03T04:19:01.925Z,50238.81
2023-05-03T04:21:30.362Z,50208.42
2023-05-03T04:24:00.465Z,50227.21
2023-05-03T04:26:32.218Z,50222.41
2023-05-03T04:29:20.721Z,50227.61
2023-05-03T04:31:49.289Z,50228.41
2023-05-03T04:34:19.129Z,50232.41
2023-05-03T04:36:49.289Z,50219.21
2023-05-03T04:39:18.713Z,50233.61
2023-05-03T04:41:48.227Z,50223.62
2023-05-03T04:44:17.516Z,50210.42
2023-05-03T04:47:12.031Z,50226.42
2023-05-03T04:49:42.023Z,50241.61
2023-05-03T04:52:10.854Z,50234.01
2023-05-03T04:54:39.286Z,50233.61
2023-05-03T04:57:09.722Z,50236.41
2023-05-03T04:59:38.576Z,50232.81
2023-05-03T05:02:07.054Z,50238.01
2023-05-03T05:04:35.696Z,50227.62
2023-05-03T05:07:04.181Z,50248.41
2023-05-03T05:09:34.482Z,50241.61
2023-05-03T05:12:04.282Z,50227.22
2023-05-03T05:14:38.475Z,50238.81
2023-05-03T05:17:07.796Z,50240.41
2023-05-03T05:19:36.093Z,50215.21
2023-05-03T05:22:05.022Z,50230.81
2023-05-03T05:24:53.547Z,50232.41
2023-05-03T05:27:23.810Z,50203.23
2023-05-03T05:29:53.589Z,50210.82
2023-05-03T05:32:22.697Z,50202.42
2023-05-03T05:34:55.686Z,50216.42
2023-05-03T05:37:26.608Z,50194.82
2023-05-03T05:39:56.039Z,50208.42
2023-05-03T05:42:27.195Z,50213.62
2023-05-03T05:44:57.898Z,50222.82
2023-05-03T05:47:27.497Z,50218.42
2023-05-03T05:49:57.041Z,50222.82
2023-05-03T05:52:25.409Z,50208.02
2023-05-03T05:54:54.108Z,50210.42
2023-05-03T05:57:22.997Z,50190.83
2023-05-03T05:59:52.692Z,50207.22
2023-05-03T06:02:25.020Z,50206.02
2023-05-03T06:04:54.014Z,50202.02
2023-05-03T06:07:22.830Z,50206.82
2023-05-03T06:09:51.785Z,50200.82
2023-05-03T06:12:20.052Z,50190.02
2023-05-03T06:15:01.522Z,50200.42
2023-05-03T06:17:35.911Z,50212.02
2023-05-03T06:20:05.177Z,50218.42
2023-05-03T06:22:34.350Z,50215.62
2023-05-03T06:25:02.641Z,50202.43
2023-05-03T06:27:31.312Z,50208.42
2023-05-03T06:29:59.732Z,50205.22
2023-05-03T06:32:31.436Z,50209.22
2023-05-03T06:35:00.388Z,50209.22
2023-05-03T06:37:28.637Z,50196.82
2023-05-03T06:39:57.291Z,50205.22
2023-05-03T06:42:25.868Z,50224.02
2023-05-03T06:45:06.627Z,50201.22
2023-05-03T06:47:35.320Z,50207.62
2023-05-03T06:50:04.221Z,50210.82
2023-05-03T06:52:33.504Z,50217.62
2023-05-03T06:55:01.730Z,50216.82
2023-05-03T06:57:29.972Z,50207.22
2023-05-03T06:59:59.749Z,50204.02
2023-05-03T07:02:29.220Z,50217.62
2023-05-03T07:04:57.527Z,50208.42
2023-05-03T07:07:26.660Z,50205.62
2023-05-03T07:09:54.978Z,50196.43
2023-05-03T07:12:27.772Z,50205.62
2023-05-03T07:14:56.281Z,50198.02
2023-05-03T07:17:26.231Z,50189.63
2023-05-03T07:19:55.109Z,50188.83
2023-05-03T07:22:26.859Z,50219.21
2023-05-03T07:24:55.965Z,50200.82
2023-05-03T07:27:24.308Z,50201.62
2023-05-03T07:29:52.983Z,50200.82
2023-05-03T07:32:21.993Z,50185.23
2023-05-03T07:34:50.252Z,50193.23
2023-05-03T07:37:18.645Z,50200.42
2023-05-03T07:39:46.946Z,50199.23
2023-05-03T07:42:15.120Z,50191.23
2023-05-03T07:44:43.519Z,50193.63
2023-05-03T07:47:12.425Z,50176.83
2023-05-03T07:49:40.701Z,50181.23
2023-05-03T07:52:10.253Z,50200.42
2023-05-03T07:54:39.218Z,50180.03
2023-05-03T07:57:08.937Z,50190.03
2023-05-03T07:59:39.893Z,50208.42
2023-05-03T08:02:08.328Z,50186.03
2023-05-03T08:04:36.824Z,50180.43
2023-05-03T08:07:05.426Z,50188.83
2023-05-03T08:09:33.838Z,50188.83
2023-05-03T08:12:03.282Z,50187.63
2023-05-03T08:14:31.553Z,50173.23
2023-05-03T08:17:00.832Z,50182.03
2023-05-03T08:19:29.044Z,50191.63
2023-05-03T08:21:58.379Z,50192.43
2023-05-03T08:24:27.116Z,50177.63
2023-05-03T08:26:55.816Z,50202.42
2023-05-03T08:29:25.636Z,50202.43
2023-05-03T08:31:55.389Z,50186.03
2023-05-03T08:34:23.666Z,50172.83
2023-05-03T08:36:52.262Z,50177.63
2023-05-03T08:39:20.480Z,50172.43
2023-05-03T08:41:48.825Z,50190.43
2023-05-03T08:44:24.429Z,50165.24
2023-05-03T08:46:53.055Z,50172.04
2023-05-03T08:49:21.886Z,50140.45
2023-05-03T08:51:52.029Z,50168.84
2023-05-03T08:54:22.198Z,50165.64
2023-05-03T08:56:51.381Z,50166.44
2023-05-03T08:59:19.595Z,50171.23
2023-05-03T09:01:48.883Z,50172.83
2023-05-03T09:04:17.571Z,50170.83
2023-05-03T09:06:46.892Z,50155.24
2023-05-03T09:09:16.238Z,50159.64
2023-05-03T09:11:44.524Z,50165.24
2023-05-03T09:14:18.754Z,50147.24
2023-05-03T09:16:47.414Z,50171.23
2023-05-03T09:19:16.621Z,50154.04
2023-05-03T09:21:50.787Z,50156.44
2023-05-03T09:24:22.931Z,50151.24
2023-05-03T09:26:52.294Z,50180.83
2023-05-03T09:29:32.224Z,50154.04
2023-05-03T09:32:03.003Z,50143.64
2023-05-03T09:34:32.698Z,50157.64
2023-05-03T09:37:02.425Z,50163.64
2023-05-03T09:39:31.108Z,50165.23
2023-05-03T09:42:00.474Z,50160.84
2023-05-03T09:45:02.113Z,50155.64
2023-05-03T09:47:32.401Z,50159.24
2023-05-03T09:50:01.556Z,50167.23
2023-05-03T09:52:31.112Z,50181.63
2023-05-03T09:55:02.112Z,50163.64
2023-05-03T09:57:30.681Z,50169.24
2023-05-03T09:59:59.656Z,50150.04
2023-05-03T10:02:32.857Z,50162.44
2023-05-03T10:05:06.010Z,50162.44
2023-05-03T10:07:35.295Z,50156.04
2023-05-03T10:10:05.075Z,50171.23
2023-05-03T10:12:36.509Z,50182.03
2023-05-03T10:15:08.884Z,50164.04
2023-05-03T10:20:23.130Z,50164.84
2023-05-03T10:23:11.884Z,50170.84
2023-05-03T10:26:13.847Z,50156.04
2023-05-03T10:28:43.750Z,50160.44
2023-05-03T10:31:45.282Z,50160.84
2023-05-03T10:34:31.474Z,50154.84
2023-05-03T10:37:04.261Z,50174.03
2023-05-03T10:39:32.551Z,50166.84
2023-05-03T10:42:09.391Z,50161.24
2023-05-03T10:44:51.379Z,50162.44
2023-05-03T10:47:25.146Z,50165.64
2023-05-03T10:50:12.201Z,50146.04
2023-05-03T10:52:41.144Z,50166.04
2023-05-03T10:55:11.129Z,50153.24
2023-05-03T10:57:44.179Z,50148.44
2023-05-03T11:00:18.431Z,50139.25
2023-05-03T11:03:19.075Z,50167.64
2023-05-03T11:05:52.492Z,50170.84
2023-05-03T11:08:30.968Z,50158.04
2023-05-03T11:11:00.792Z,50173.63
2023-05-03T11:13:30.627Z,50150.84
2023-05-03T11:16:00.403Z,50150.44
2023-05-03T11:18:28.776Z,50176.43
2023-05-03T11:20:57.790Z,50167.24
2023-05-03T11:23:30.306Z,50177.23
2023-05-03T11:25:58.985Z,50166.44
2023-05-03T11:28:29.795Z,50164.84
2023-05-03T11:30:59.409Z,50173.63
2023-05-03T11:33:31.125Z,50163.64
2023-05-03T11:36:03.893Z,50170.43
2023-05-03T11:38:36.546Z,50164.04
2023-05-03T11:41:19.162Z,50160.04
2023-05-03T11:43:54.840Z,50142.84
2023-05-03T11:46:26.788Z,50159.24
2023-05-03T11:48:57.019Z,50168.83
2023-05-03T11:51:27.596Z,50170.04
2023-05-03T11:54:06.840Z,50175.23
2023-05-03T11:56:42.129Z,50182.43
2023-05-03T11:59:10.501Z,50173.23
2023-05-03T12:01:38.960Z,50170.04
2023-05-03T12:04:07.540Z,50168.04
2023-05-03T12:06:39.996Z,50172.44
2023-05-03T12:09:15.880Z,50182.83
2023-05-03T12:11:47.983Z,50182.43
2023-05-03T12:14:19.679Z,50170.84
2023-05-03T12:16:52.191Z,50155.64
2023-05-03T12:19:32.902Z,50169.63
2023-05-03T12:24:35.179Z,50153.24
2023-05-03T12:27:07.070Z,50158.04
2023-05-03T12:29:37.210Z,50172.84
2023-05-03T12:32:07.709Z,50177.63
2023-05-03T12:34:41.561Z,50180.03
2023-05-03T12:37:11.944Z,50174.84
2023-05-03T12:39:45.794Z,50174.43
2023-05-03T12:42:16.841Z,50171.23
2023-05-03T12:44:48.142Z,50173.23
2023-05-03T12:47:23.950Z,50189.23
2023-05-03T12:49:59.636Z,50195.62
2023-05-03T12:55:03.014Z,50183.23
2023-05-03T12:57:37.106Z,50169.64
2023-05-03T13:00:14.072Z,50192.02
2023-05-03T13:07:55.589Z,50186.43
2023-05-03T13:10:27.189Z,50182.83
2023-05-03T13:12:57.285Z,50193.63
2023-05-03T13:15:27.427Z,50184.43
2023-05-03T13:17:57.344Z,50186.83
2023-05-03T13:20:25.676Z,50181.23
2023-05-03T13:22:53.863Z,50196.43
2023-05-03T13:25:22.339Z,50190.43
2023-05-03T13:27:53.228Z,50183.23
2023-05-03T13:30:23.481Z,50186.03
2023-05-03T13:32:52.650Z,50186.83
2023-05-03T13:35:20.902Z,50177.63
2023-05-03T13:37:49.052Z,50181.23
2023-05-03T13:40:17.570Z,50186.43
2023-05-03T13:42:46.497Z,50177.63
2023-05-03T13:45:15.796Z,50167.64
2023-05-03T13:50:18.226Z,50179.63
2023-05-03T13:52:46.653Z,50166.04
2023-05-03T13:55:14.907Z,50170.04
2023-05-03T13:57:43.894Z,50190.02
2023-05-03T14:00:13.445Z,50172.83
2023-05-03T14:02:42.631Z,50185.63
2023-05-03T14:05:11.074Z,50181.63
2023-05-03T14:07:41.125Z,50177.63
2023-05-03T14:10:11.004Z,50192.82
2023-05-03T14:12:40.128Z,50179.23
2023-05-03T14:15:09.063Z,50172.43
2023-05-03T14:17:37.639Z,50175.23
2023-05-03T14:20:08.364Z,50176.83
2023-05-03T14:22:36.927Z,50166.84
2023-05-03T14:25:05.659Z,50166.84
2023-05-03T14:27:34.046Z,50172.43
2023-05-03T14:30:02.620Z,50178.03
2023-05-03T14:32:32.793Z,50170.83
2023-05-03T14:35:02.189Z,50187.23
2023-05-03T14:37:31.424Z,50178.43
2023-05-03T14:39:59.979Z,50167.63
2023-05-03T14:42:32.372Z,50188.02
2023-05-03T14:45:00.638Z,50184.03
2023-05-03T14:47:29.372Z,50181.63
2023-05-03T14:49:57.842Z,50160.04
2023-05-03T14:52:26.317Z,50182.03
2023-05-03T14:54:54.987Z,50168.44
2023-05-03T14:57:25.833Z,50165.24
2023-05-03T14:59:55.070Z,50171.64
2023-05-03T15:02:23.609Z,50171.63
2023-05-03T15:04:52.894Z,50164.84
2023-05-03T15:07:21.419Z,50170.43
2023-05-03T15:09:49.835Z,50155.64
2023-05-03T15:12:18.063Z,50148.44
2023-05-03T15:14:47.606Z,50140.45
2023-05-03T15:17:16.949Z,50166.43
2023-05-03T15:19:45.904Z,50154.44
2023-05-03T15:22:14.252Z,50175.23
2023-05-03T15:24:42.799Z,50161.64
2023-05-03T15:27:13.116Z,50163.24
2023-05-03T15:29:42.163Z,50172.04
2023-05-03T15:32:10.898Z,50170.43
2023-05-03T15:34:39.793Z,50174.03
2023-05-03T15:37:12.467Z,50169.64
2023-05-03T15:39:40.883Z,50175.63
2023-05-03T15:42:09.227Z,50183.63
2023-05-03T15:44:37.484Z,50187.23
2023-05-03T15:47:06.001Z,50183.63
2023-05-03T15:49:34.415Z,50182.83
2023-05-03T15:52:03.293Z,50178.03
2023-05-03T15:54:31.647Z,50182.03
2023-05-03T15:57:00.120Z,50193.63
2023-05-03T15:59:28.742Z,50180.83
2023-05-03T16:01:57.038Z,50170.43
2023-05-03T16:04:26.132Z,50172.44
2023-05-03T16:06:54.461Z,50170.04
2023-05-03T16:09:23.154Z,50176.83
2023-05-03T16:11:52.648Z,50174.84
2023-05-03T16:14:22.560Z,50170.43
2023-05-03T16:16:51.445Z,50182.03
2023-05-03T16:19:19.767Z,50176.04
2023-05-03T16:21:51.114Z,50196.43
2023-05-03T16:24:19.646Z,50180.43
2023-05-03T16:26:51.159Z,50195.63
2023-05-03T16:29:22.237Z,50188.43
2023-05-03T16:31:53.449Z,50209.22
2023-05-03T16:34:25.698Z,50203.63
2023-05-03T16:36:56.158Z,50203.22
2023-05-03T16:39:27.135Z,50206.42
2023-05-03T16:41:56.514Z,50192.43
2023-05-03T16:44:27.511Z,50180.83
2023-05-03T16:46:55.753Z,50201.22
2023-05-03T16:49:23.974Z,50192.43
2023-05-03T16:51:56.814Z,50203.23
2023-05-03T16:54:26.226Z,50209.22
2023-05-03T16:56:54.788Z,50200.42
2023-05-03T16:59:23.672Z,50199.62
2023-05-03T17:01:52.076Z,50205.62
2023-05-03T17:04:20.317Z,50220.02
2023-05-03T17:06:48.942Z,50235.61
2023-05-03T17:09:17.567Z,50230.41
2023-05-03T17:11:46.124Z,50242.01
2023-05-03T17:14:14.432Z,50236.81
2023-05-03T17:16:46.974Z,50236.81
2023-05-03T17:19:15.789Z,50240.81
2023-05-03T17:21:44.070Z,50251.61
2023-05-03T17:24:12.323Z,50242.80
2023-05-03T17:26:43.433Z,50254.01
2023-05-03T17:29:15.530Z,50250.80
2023-05-03T17:31:44.114Z,50255.61
2023-05-03T17:34:12.445Z,50249.61
2023-05-03T17:36:43.752Z,50246.80
2023-05-03T17:39:17.332Z,50272.00
2023-05-03T17:41:45.464Z,50265.20
2023-05-03T17:44:14.515Z,50257.20
2023-05-03T17:46:45.047Z,50254.80
2023-05-03T17:49:13.402Z,50268.80
2023-05-03T17:51:42.555Z,50270.80
2023-05-03T17:54:13.297Z,50265.20
2023-05-03T17:56:44.310Z,50266.00
2023-05-03T17:59:12.596Z,50263.60
2023-05-03T18:01:41.032Z,50267.60
2023-05-03T18:04:10.224Z,50265.60
2023-05-03T18:06:39.194Z,50264.40
2023-05-03T18:09:08.277Z,50267.20
2023-05-03T18:11:37.099Z,50254.80
2023-05-03T18:14:05.370Z,50267.20
2023-05-03T18:16:33.628Z,50262.40
2023-05-03T18:19:02.266Z,50264.00
2023-05-03T18:21:31.120Z,50265.20
2023-05-03T18:23:59.441Z,50271.60
2023-05-03T18:26:27.696Z,50279.20
2023-05-03T18:28:56.991Z,50257.21
2023-05-03T18:31:25.553Z,50256.01
2023-05-03T18:33:53.843Z,50260.80
2023-05-03T18:36:24.098Z,50268.00
2023-05-03T18:38:54.539Z,50272.40
2023-05-03T18:41:23.229Z,50262.40
2023-05-03T18:43:52.374Z,50263.60
2023-05-03T18:46:22.385Z,50265.20
2023-05-03T18:48:51.449Z,50276.80
2023-05-03T18:51:19.852Z,50274.00
2023-05-03T18:53:48.473Z,50269.61
2023-05-03T18:56:16.825Z,50268.80
2023-05-03T18:58:48.184Z,50242.80
2023-05-03T19:01:16.707Z,50263.20
2023-05-03T19:03:44.959Z,50244.80
2023-05-03T19:06:14.421Z,50259.20
2023-05-03T19:08:43.930Z,50273.20
2023-05-03T19:11:14.792Z,50250.01
2023-05-03T19:13:47.402Z,50269.60
2023-05-03T19:16:16.474Z,50251.21
2023-05-03T19:18:47.327Z,50257.20
2023-05-03T19:21:19.781Z,50241.21
2023-05-03T19:23:47.987Z,50266.00
2023-05-03T19:26:16.246Z,50255.21
2023-05-03T19:28:44.434Z,50257.61
2023-05-03T19:31:12.833Z,50260.40
2023-05-03T19:33:41.066Z,50269.60
2023-05-03T19:36:14.928Z,50247.21
2023-05-03T19:38:43.368Z,50261.60
2023-05-03T19:41:14.456Z,50254.41
2023-05-03T19:43:42.753Z,50256.41
2023-05-03T19:46:11.244Z,50256.40
2023-05-03T19:48:39.591Z,50269.20
2023-05-03T19:51:13.520Z,50259.20
2023-05-03T19:53:41.998Z,50255.61
2023-05-03T19:56:10.332Z,50256.01
2023-05-03T19:58:42.453Z,50249.21
2023-05-03T20:01:10.730Z,50251.61
2023-05-03T20:03:39.688Z,50258.01
2023-05-03T20:06:08.075Z,50270.80
2023-05-03T20:08:37.237Z,50262.40
2023-05-03T20:11:10.927Z,50261.20
2023-05-03T20:13:41.665Z,50270.00
2023-05-03T20:16:10.060Z,50253.20
2023-05-03T20:18:39.046Z,50252.01
2023-05-03T20:21:07.322Z,50258.40
2023-05-03T20:23:35.514Z,50239.21
2023-05-03T20:26:03.712Z,50264.80
2023-05-03T20:28:35.175Z,50271.60
2023-05-03T20:31:04.152Z,50271.20
2023-05-03T20:33:33.257Z,50241.61
2023-05-03T20:36:01.711Z,50249.21
2023-05-03T20:38:29.896Z,50262.80
2023-05-03T20:40:58.157Z,50262.80
2023-05-03T20:43:26.378Z,50259.21
2023-05-03T20:45:54.824Z,50267.20
2023-05-03T20:48:23.778Z,50253.21
2023-05-03T20:50:52.000Z,50259.20
2023-05-03T20:53:21.277Z,50246.41
2023-05-03T20:56:00.435Z,50267.60
2023-05-03T20:58:28.652Z,50251.21
2023-05-03T21:00:58.020Z,50252.80
2023-05-03T21:03:26.694Z,50273.60
2023-05-03T21:05:56.626Z,50255.21
2023-05-03T21:08:25.054Z,50261.21
2023-05-03T21:10:53.815Z,50256.01
2023-05-03T21:13:22.136Z,50261.60
2023-05-03T21:15:51.121Z,50266.80
2023-05-03T21:18:19.707Z,50259.20
2023-05-03T21:20:48.008Z,50256.80
2023-05-03T21:23:16.306Z,50258.80
2023-05-03T21:25:44.565Z,50261.60
2023-05-03T21:28:12.737Z,50265.20
2023-05-03T21:30:42.457Z,50250.01
2023-05-03T21:33:10.740Z,50266.40
2023-05-03T21:35:41.076Z,50267.60
2023-05-03T21:38:11.822Z,50263.60
2023-05-03T21:40:40.156Z,50264.80
2023-05-03T21:43:09.988Z,50264.01
2023-05-03T21:45:42.529Z,50269.20
2023-05-03T21:48:10.908Z,50262.01
2023-05-03T21:50:40.361Z,50254.41
2023-05-03T21:53:08.546Z,50256.80
2023-05-03T21:55:36.929Z,50270.40
2023-05-03T21:58:06.605Z,50278.40
2023-05-03T22:00:36.341Z,50258.41
2023-05-03T22:03:04.668Z,50260.80
2023-05-03T22:05:33.402Z,50252.41
2023-05-03T22:08:01.959Z,50269.60
2023-05-03T22:10:30.136Z,50261.60
2023-05-03T22:12:58.584Z,50240.81
2023-05-03T22:15:26.865Z,50264.40
2023-05-03T22:17:55.313Z,50257.21
2023-05-03T22:20:23.587Z,50252.80
2023-05-03T22:22:51.784Z,50257.21
2023-05-03T22:25:24.455Z,50253.21
2023-05-03T22:27:53.709Z,50245.61
2023-05-03T22:30:22.270Z,50244.01
2023-05-03T22:32:50.892Z,50254.41
2023-05-03T22:35:19.362Z,50240.01
2023-05-03T22:37:47.534Z,50262.80
2023-05-03T22:40:15.821Z,50250.41
2023-05-03T22:42:44.071Z,50256.41
2023-05-03T22:45:12.246Z,50265.21
2023-05-03T22:47:41.169Z,50269.60
2023-05-03T22:50:10.554Z,50260.41
2023-05-03T22:52:38.734Z,50270.40
2023-05-03T22:55:08.238Z,50249.21
2023-05-03T22:57:36.838Z,50260.40
2023-05-03T23:00:06.838Z,50263.21
2023-05-03T23:02:35.449Z,50260.40
2023-05-03T23:05:04.008Z,50250.41
2023-05-03T23:07:32.164Z,50256.41
2023-05-03T23:10:05.251Z,50262.00
2023-05-03T23:12:34.221Z,50261.20
2023-05-03T23:15:02.542Z,50262.40
2023-05-03T23:17:30.822Z,50263.60
2023-05-03T23:19:59.030Z,50250.80
2023-05-03T23:22:27.671Z,50255.20
2023-05-03T23:24:55.881Z,50265.60
2023-05-03T23:27:24.043Z,50263.60
2023-05-03T23:29:53.136Z,50265.61
2023-05-03T23:32:22.118Z,50249.21
2023-05-03T23:34:51.035Z,50251.21
2023-05-03T23:37:19.452Z,50247.21
2023-05-03T23:39:47.938Z,50252.41
2023-05-03T23:42:18.180Z,50258.80
2023-05-03T23:44:55.501Z,50254.01
2023-05-03T23:47:24.649Z,50250.41
2023-05-03T23:49:53.588Z,50257.61
2023-05-03T23:52:21.813Z,50242.81
2023-05-03T23:54:50.096Z,50253.21
2023-05-03T23:57:18.333Z,50258.00
2023-05-03T23:59:46.749Z,50276.39
